Wilforce — LARL7 — position and weather

sailwx.info

Track history (hours):
 
Tides and Currents Weather Stations Pressure Air Temp Water Temp Dewpoint Dewpoint Depression Visibility Wind Speed Wind Dir Waves Ship Positions

Wilforce

Last reported at 2017-Nov-25 05:30 UTC. Time now 2017-Nov-25 05:50 UTC.
Position N 37°15' E 004°02'.

Length 290 m; draft 10.8 m.

Type: Ship (hazmat cat D). MMSI: 258702000.

Date/timePositionNaut miles runAvg speedWind from/ knotsBaromVisibWave heightAir tempDewpointWater temp
2017-Nov-25 05:30N 37°15' E 004°02'817.0
2017-Nov-25 05:00N 37°16' E 004°12'817.0
2017-Nov-25 04:30N 37°17' E 004°23'817.0
2017-Nov-25 04:00N 37°18' E 004°33'917.2
2017-Nov-25 03:30N 37°18' E 004°44'917.4
2017-Nov-25 02:59N 37°19' E 004°56'817.5
2017-Nov-25 02:30N 37°20' E 005°06'917.2
2017-Nov-25 02:00N 37°20' E 005°17'917.3
2017-Nov-25 01:30N 37°21' E 005°27'917.4
2017-Nov-25 01:00N 37°22' E 005°38'10616.9
2017-Nov-24 18:45N 37°33' E 007°51'5017.2
2017-Nov-24 15:49N 37°38' E 008°54'816.7
2017-Nov-24 15:22N 37°39' E 009°04'616.2
2017-Nov-24 14:58N 37°39' E 009°12'816.2
2017-Nov-24 14:30N 37°39' E 009°21'816.4
2017-Nov-24 13:59N 37°39' E 009°32'1016.9
2017-Nov-24 13:25N 37°39' E 009°44'19817.4
2017-Nov-24 02:04N 36°28' E 013°36'418.6
2017-Nov-24 01:51N 36°27' E 013°40'818.6
2017-Nov-24 01:25N 36°24' E 013°50'718.3
2017-Nov-24 01:00N 36°22' E 013°58'918.3
2017-Nov-24 00:30N 36°20' E 014°09'918.3
2017-Nov-24 00:00N 36°17' E 014°20'918.2
2017-Nov-23 23:30N 36°14' E 014°31'917.9
2017-Nov-23 23:00N 36°11' E 014°41'  
Track history (hours):
 
Tides and Currents Weather Stations Pressure Air Temp Water Temp Dewpoint Dewpoint Depression Visibility Wind Speed Wind Dir Waves Ship Positions

Wilforce

Last reported at 2017-Nov-25 05:30 UTC. Time now 2017-Nov-25 05:50 UTC.
Position N 37°15' E 004°02'.

Length 290 m; draft 10.8 m.

Type: Ship (hazmat cat D). MMSI: 258702000.

Date/timePositionNaut miles runAvg speedWind from/ knotsBaromVisibWave heightAir tempDewpointWater temp
2017-Nov-25 05:30N 37°15' E 004°02'817.0
2017-Nov-25 05:00N 37°16' E 004°12'817.0
2017-Nov-25 04:30N 37°17' E 004°23'817.0
2017-Nov-25 04:00N 37°18' E 004°33'917.2
2017-Nov-25 03:30N 37°18' E 004°44'917.4
2017-Nov-25 02:59N 37°19' E 004°56'817.5
2017-Nov-25 02:30N 37°20' E 005°06'917.2
2017-Nov-25 02:00N 37°20' E 005°17'917.3
2017-Nov-25 01:30N 37°21' E 005°27'917.4
2017-Nov-25 01:00N 37°22' E 005°38'10616.9
2017-Nov-24 18:45N 37°33' E 007°51'5017.2
2017-Nov-24 15:49N 37°38' E 008°54'816.7
2017-Nov-24 15:22N 37°39' E 009°04'616.2
2017-Nov-24 14:58N 37°39' E 009°12'816.2
2017-Nov-24 14:30N 37°39' E 009°21'816.4
2017-Nov-24 13:59N 37°39' E 009°32'1016.9
2017-Nov-24 13:25N 37°39' E 009°44'19817.4
2017-Nov-24 02:04N 36°28' E 013°36'418.6
2017-Nov-24 01:51N 36°27' E 013°40'818.6
2017-Nov-24 01:25N 36°24' E 013°50'718.3
2017-Nov-24 01:00N 36°22' E 013°58'918.3
2017-Nov-24 00:30N 36°20' E 014°09'918.3
2017-Nov-24 00:00N 36°17' E 014°20'918.2
2017-Nov-23 23:30N 36°14' E 014°31'917.9
2017-Nov-23 23:00N 36°11' E 014°41'  

Dump ship's entire track history